createdAt,value
2022-09-12T00:01:38.693Z,8.30
2022-09-12T00:04:07.445Z,7.17
2022-09-12T00:06:38.119Z,8.13
2022-09-12T00:09:09.586Z,6.13
2022-09-12T00:11:41.506Z,8.40
2022-09-12T00:14:12.196Z,5.83
2022-09-12T00:16:41.324Z,6.90
2022-09-12T00:19:11.180Z,7.73
2022-09-12T00:21:41.752Z,8.17
2022-09-12T00:24:11.872Z,8.43
2022-09-12T00:26:42.256Z,8.20
2022-09-12T00:29:16.624Z,10.60
2022-09-12T00:31:45.510Z,8.43
2022-09-12T00:34:15.124Z,6.67
2022-09-12T00:36:43.835Z,8.83
2022-09-12T00:39:16.915Z,7.73
2022-09-12T00:41:47.754Z,6.63
2022-09-12T00:44:46.222Z,7.20
2022-09-12T00:47:21.930Z,7.23
2022-09-12T00:49:55.687Z,9.73
2022-09-12T00:52:29.847Z,7.53
2022-09-12T00:55:05.151Z,9.23
2022-09-12T00:57:40.578Z,6.77
2022-09-12T01:00:17.203Z,7.30
2022-09-12T01:02:50.359Z,7.47
2022-09-12T01:05:19.268Z,7.00
2022-09-12T01:07:48.966Z,7.13
2022-09-12T01:10:18.333Z,8.90
2022-09-12T01:12:49.909Z,8.17
2022-09-12T01:15:18.716Z,10.70
2022-09-12T01:18:03.833Z,9.17
2022-09-12T01:20:58.051Z,10.47
2022-09-12T01:23:56.660Z,8.57
2022-09-12T01:27:01.437Z,8.37
2022-09-12T01:30:05.644Z,10.67
2022-09-12T01:32:48.794Z,13.73
2022-09-12T01:35:23.233Z,12.93
2022-09-12T01:38:00.376Z,15.60
2022-09-12T01:40:33.257Z,11.23
2022-09-12T01:43:11.436Z,14.70
2022-09-12T01:45:45.901Z,11.80
2022-09-12T01:48:20.853Z,10.93
2022-09-12T01:50:55.004Z,12.07
2022-09-12T01:53:27.326Z,12.63
2022-09-12T01:55:59.957Z,11.60
2022-09-12T01:58:31.902Z,16.40
2022-09-12T02:01:05.307Z,12.17
2022-09-12T02:03:44.794Z,12.63
2022-09-12T02:06:19.731Z,12.23
2022-09-12T02:08:53.236Z,12.30
2022-09-12T02:11:23.277Z,12.53
2022-09-12T02:13:56.958Z,14.47
2022-09-12T02:16:34.572Z,12.23
2022-09-12T02:19:10.322Z,11.43
2022-09-12T02:21:42.903Z,10.70
2022-09-12T02:24:14.976Z,10.30
2022-09-12T02:26:51.178Z,11.53
2022-09-12T02:29:20.086Z,9.90
2022-09-12T02:31:54.093Z,13.17
2022-09-12T02:34:43.413Z,10.30
2022-09-12T02:37:22.997Z,9.80
2022-09-12T02:39:53.479Z,10.17
2022-09-12T02:42:22.636Z,9.60
2022-09-12T02:44:52.314Z,11.07
2022-09-12T02:47:26.322Z,14.73
2022-09-12T02:49:58.073Z,10.03
2022-09-12T02:52:28.236Z,11.50
2022-09-12T02:54:58.738Z,12.67
2022-09-12T02:57:28.263Z,10.90
2022-09-12T03:00:01.338Z,11.23
2022-09-12T03:02:40.130Z,10.23
2022-09-12T03:05:22.536Z,12.50
2022-09-12T03:08:18.362Z,9.80
2022-09-12T03:11:07.359Z,9.87
2022-09-12T03:13:47.579Z,11.87
2022-09-12T03:16:23.481Z,11.00
2022-09-12T03:19:00.087Z,10.00
2022-09-12T03:21:35.139Z,10.83
2022-09-12T03:24:13.054Z,10.73
2022-09-12T03:26:45.738Z,11.67
2022-09-12T03:29:16.034Z,10.13
2022-09-12T03:31:53.037Z,10.37
2022-09-12T03:34:23.293Z,13.97
2022-09-12T03:36:55.442Z,9.70
2022-09-12T03:39:26.517Z,10.73
2022-09-12T03:41:55.547Z,11.20
2022-09-12T03:44:24.923Z,8.93
2022-09-12T03:46:53.623Z,11.20
2022-09-12T03:49:22.370Z,13.73
2022-09-12T03:51:51.085Z,11.90
2022-09-12T03:54:21.412Z,12.27
2022-09-12T03:56:50.212Z,12.90
2022-09-12T03:59:18.938Z,11.00
2022-09-12T04:01:47.527Z,13.67
2022-09-12T04:04:16.278Z,10.47
2022-09-12T04:06:44.844Z,13.63
2022-09-12T04:09:13.551Z,11.00
2022-09-12T04:11:43.879Z,10.77
2022-09-12T04:14:12.582Z,13.70
2022-09-12T04:16:41.428Z,13.00
2022-09-12T04:19:12.425Z,15.80
2022-09-12T04:21:41.341Z,10.10
2022-09-12T04:24:09.939Z,12.03
2022-09-12T04:26:38.634Z,13.97
2022-09-12T04:29:08.828Z,14.10
2022-09-12T04:31:37.359Z,13.43
2022-09-12T04:34:06.161Z,14.77
2022-09-12T04:36:35.536Z,13.07
2022-09-12T04:39:05.852Z,14.67
2022-09-12T04:41:36.562Z,13.20
2022-09-12T04:44:09.051Z,14.37
2022-09-12T04:46:40.243Z,14.40
2022-09-12T04:49:09.217Z,13.47
2022-09-12T04:51:40.108Z,12.70
2022-09-12T04:54:12.024Z,14.77
2022-09-12T04:56:42.208Z,13.47
2022-09-12T04:59:14.339Z,11.47
2022-09-12T05:01:43.660Z,11.27
2022-09-12T05:04:13.175Z,11.70
2022-09-12T05:06:43.196Z,11.23
2022-09-12T05:09:14.169Z,12.07
2022-09-12T05:14:36.247Z,9.37
2022-09-12T05:17:06.316Z,9.07
2022-09-12T05:19:35.118Z,9.60
2022-09-12T05:22:05.070Z,9.07
2022-09-12T05:24:35.167Z,9.27
2022-09-12T05:27:04.835Z,10.30
2022-09-12T05:29:34.804Z,9.50
2022-09-12T05:32:03.613Z,8.47
2022-09-12T05:34:32.296Z,11.40
2022-09-12T05:37:01.042Z,9.90
2022-09-12T05:39:29.709Z,8.97
2022-09-12T05:41:58.485Z,8.93
2022-09-12T05:44:27.124Z,8.30
2022-09-12T05:46:57.630Z,9.10
2022-09-12T05:49:26.298Z,9.33
2022-09-12T05:51:55.003Z,8.23
2022-09-12T05:54:24.359Z,10.33
2022-09-12T05:56:54.075Z,11.27
2022-09-12T05:59:24.112Z,10.60
2022-09-12T06:01:52.842Z,8.70
2022-09-12T06:04:23.769Z,7.23
2022-09-12T06:06:52.506Z,11.37
2022-09-12T06:09:21.413Z,7.77
2022-09-12T06:11:49.885Z,10.17
2022-09-12T06:14:19.580Z,9.07
2022-09-12T06:16:49.905Z,9.93
2022-09-12T06:19:20.387Z,10.03
2022-09-12T06:21:51.517Z,9.80
2022-09-12T06:24:22.131Z,10.00
2022-09-12T06:26:53.897Z,8.43
2022-09-12T06:29:22.670Z,8.77
2022-09-12T06:31:51.319Z,8.30
2022-09-12T06:34:19.995Z,6.73
2022-09-12T06:36:51.339Z,6.67
2022-09-12T06:39:22.360Z,9.03
2022-09-12T06:41:52.392Z,6.57
2022-09-12T06:44:32.306Z,6.07
2022-09-12T06:47:00.732Z,5.50
2022-09-12T06:49:29.246Z,6.50
2022-09-12T06:51:59.400Z,6.10
2022-09-12T06:54:28.017Z,6.33
2022-09-12T06:56:56.835Z,5.47
2022-09-12T06:59:25.341Z,6.57
2022-09-12T07:01:53.953Z,6.13
2022-09-12T07:04:22.564Z,6.37
2022-09-12T07:06:51.027Z,7.77
2022-09-12T07:09:20.849Z,6.10
2022-09-12T07:11:49.365Z,8.07
2022-09-12T07:14:17.811Z,6.33
2022-09-12T07:16:46.375Z,6.90
2022-09-12T07:19:14.850Z,6.47
2022-09-12T07:21:43.384Z,6.03
2022-09-12T07:24:12.131Z,6.63
2022-09-12T07:26:44.080Z,6.30
2022-09-12T07:29:36.837Z,5.53
2022-09-12T07:32:06.659Z,6.70
2022-09-12T07:34:35.997Z,5.60
2022-09-12T07:37:04.717Z,6.67
2022-09-12T07:39:33.453Z,6.63
2022-09-12T07:42:03.263Z,5.30
2022-09-12T07:44:31.755Z,6.03
2022-09-12T07:47:00.245Z,5.50
2022-09-12T07:49:30.518Z,5.90
2022-09-12T07:51:58.990Z,7.43
2022-09-12T07:54:27.708Z,4.97
2022-09-12T07:56:56.615Z,6.13
2022-09-12T07:59:50.876Z,3.67
2022-09-12T08:02:17.452Z,3.50
2022-09-12T08:04:48.037Z,4.40
2022-09-12T08:07:18.368Z,3.60
2022-09-12T08:09:47.347Z,5.03
2022-09-12T08:12:16.560Z,5.20
2022-09-12T08:14:46.386Z,4.53
2022-09-12T08:17:15.323Z,4.40
2022-09-12T08:19:44.895Z,5.10
2022-09-12T08:22:13.672Z,4.80
2022-09-12T08:24:42.249Z,7.70
2022-09-12T08:27:10.785Z,3.97
2022-09-12T08:29:39.282Z,5.00
2022-09-12T08:32:09.634Z,5.57
2022-09-12T08:34:38.114Z,4.80
2022-09-12T08:37:06.612Z,3.53
2022-09-12T08:39:35.070Z,4.53
2022-09-12T08:42:05.578Z,4.28
2022-09-12T08:44:52.140Z,5.30
2022-09-12T08:47:36.541Z,3.83
2022-09-12T08:50:12.684Z,4.87
2022-09-12T08:52:50.738Z,4.27
2022-09-12T08:55:32.770Z,3.90
2022-09-12T08:58:02.494Z,5.33
2022-09-12T09:00:40.663Z,4.00
2022-09-12T09:03:36.325Z,6.90
2022-09-12T09:06:14.050Z,3.47
2022-09-12T09:08:50.635Z,3.90
2022-09-12T09:11:33.805Z,4.30
2022-09-12T09:14:38.093Z,5.07
2022-09-12T09:17:11.909Z,3.92
2022-09-12T09:19:51.002Z,3.63
2022-09-12T09:22:26.929Z,3.53
2022-09-12T09:25:01.590Z,3.10
2022-09-12T09:27:40.947Z,3.28
2022-09-12T09:30:16.471Z,4.53
2022-09-12T09:32:50.193Z,3.67
2022-09-12T09:35:36.245Z,2.58
2022-09-12T09:38:17.750Z,2.28
2022-09-12T09:40:53.508Z,5.57
2022-09-12T09:43:25.463Z,2.55
2022-09-12T09:45:54.252Z,3.75
2022-09-12T09:48:26.772Z,4.18
2022-09-12T09:51:00.085Z,2.92
2022-09-12T09:53:36.221Z,2.63
2022-09-12T09:56:10.102Z,2.67
2022-09-12T09:58:38.631Z,3.58
2022-09-12T10:01:13.395Z,4.55
2022-09-12T10:03:48.452Z,1.70
2022-09-12T10:06:34.305Z,2.10
2022-09-12T10:09:25.184Z,2.85
2022-09-12T10:11:55.011Z,3.58
2022-09-12T10:14:36.681Z,3.88
2022-09-12T10:17:24.783Z,2.53
2022-09-12T10:20:10.563Z,1.85
2022-09-12T10:22:48.609Z,2.60
2022-09-12T10:25:19.714Z,2.03
2022-09-12T10:27:55.191Z,2.85
2022-09-12T10:30:25.956Z,1.88
2022-09-12T10:32:55.789Z,1.42
2022-09-12T10:35:26.860Z,3.13
2022-09-12T10:37:59.807Z,3.45
2022-09-12T10:40:32.626Z,2.28
2022-09-12T10:43:02.913Z,1.77
2022-09-12T10:45:35.545Z,1.90
2022-09-12T10:48:23.296Z,4.97
2022-09-12T10:50:52.068Z,2.88
2022-09-12T10:53:24.419Z,5.22
2022-09-12T10:56:03.121Z,2.22
2022-09-12T10:58:45.962Z,1.75
2022-09-12T11:01:28.731Z,2.33
2022-09-12T11:04:31.940Z,1.65
2022-09-12T11:07:18.256Z,1.77
2022-09-12T11:09:54.729Z,3.28
2022-09-12T11:12:34.001Z,1.48
2022-09-12T11:15:17.107Z,1.88
2022-09-12T11:17:54.213Z,1.38
2022-09-12T11:20:45.648Z,1.55
2022-09-12T11:23:48.096Z,3.20
2022-09-12T11:26:28.836Z,1.25
2022-09-12T11:29:05.847Z,1.67
2022-09-12T11:32:05.414Z,1.33
2022-09-12T11:34:46.042Z,3.08
2022-09-12T11:37:29.089Z,1.45
2022-09-12T11:40:01.215Z,1.45
2022-09-12T11:42:38.550Z,1.77
2022-09-12T11:45:25.385Z,9.30
2022-09-12T11:47:58.639Z,7.28
2022-09-12T11:50:31.079Z,1.50
2022-09-12T11:53:06.657Z,3.30
2022-09-12T11:55:47.796Z,3.08
2022-09-12T11:58:19.626Z,1.75
2022-09-12T12:00:51.834Z,1.30
2022-09-12T12:03:27.984Z,2.00
2022-09-12T12:06:04.158Z,2.25
2022-09-12T12:08:34.573Z,1.60
2022-09-12T12:11:05.980Z,3.45
2022-09-12T12:13:39.854Z,3.25
2022-09-12T12:16:14.346Z,1.50
2022-09-12T12:18:44.719Z,1.52
2022-09-12T12:21:34.870Z,2.63
2022-09-12T12:24:12.708Z,1.50
2022-09-12T12:26:55.947Z,3.42
2022-09-12T12:29:53.713Z,3.45
2022-09-12T12:32:25.113Z,2.03
2022-09-12T12:35:21.423Z,1.90
2022-09-12T12:37:54.291Z,2.65
2022-09-12T12:40:29.533Z,3.92
2022-09-12T12:43:07.643Z,2.00
2022-09-12T12:46:13.295Z,2.22
2022-09-12T12:49:06.054Z,4.35
2022-09-12T12:51:51.690Z,1.50
2022-09-12T12:54:33.281Z,1.98
2022-09-12T12:57:18.156Z,3.40
2022-09-12T12:59:50.458Z,4.88
2022-09-12T13:02:23.852Z,2.25
2022-09-12T13:04:55.441Z,1.95
2022-09-12T13:07:31.533Z,1.40
2022-09-12T13:10:02.474Z,6.07
2022-09-12T13:12:34.787Z,2.72
2022-09-12T13:15:25.338Z,1.92
2022-09-12T13:18:00.174Z,1.45
2022-09-12T13:20:32.055Z,2.17
2022-09-12T13:23:00.953Z,1.80
2022-09-12T13:25:31.631Z,1.77
2022-09-12T13:28:07.474Z,2.00
2022-09-12T13:30:37.860Z,2.20
2022-09-12T13:33:18.016Z,1.75
2022-09-12T13:36:17.649Z,1.60
2022-09-12T13:38:57.606Z,2.35
2022-09-12T13:41:53.277Z,1.50
2022-09-12T13:44:24.415Z,2.13
2022-09-12T13:46:54.014Z,2.75
2022-09-12T13:49:37.089Z,2.00
2022-09-12T13:52:08.341Z,1.58
2022-09-12T13:54:39.430Z,3.55
2022-09-12T13:57:08.198Z,4.70
2022-09-12T13:59:40.172Z,3.30
2022-09-12T14:02:21.487Z,2.42
2022-09-12T14:05:10.240Z,1.83
2022-09-12T14:07:55.115Z,2.25
2022-09-12T14:10:30.285Z,1.40
2022-09-12T14:13:01.048Z,2.67
2022-09-12T14:15:33.885Z,2.45
2022-09-12T14:18:05.237Z,1.50
2022-09-12T14:20:39.451Z,1.45
2022-09-12T14:23:17.922Z,1.50
2022-09-12T14:25:47.743Z,2.30
2022-09-12T14:28:23.402Z,2.67
2022-09-12T14:31:04.949Z,4.10
2022-09-12T14:33:47.597Z,41.80
2022-09-12T14:36:25.088Z,2.15
2022-09-12T14:38:57.052Z,1.80
2022-09-12T14:41:30.643Z,1.52
2022-09-12T14:44:01.551Z,2.35
2022-09-12T14:46:34.548Z,1.42
2022-09-12T14:49:09.200Z,2.38
2022-09-12T14:51:49.366Z,2.42
2022-09-12T14:54:40.237Z,1.33
2022-09-12T14:57:36.432Z,1.45
2022-09-12T15:00:26.323Z,3.67
2022-09-12T15:02:55.859Z,1.83
2022-09-12T15:05:27.383Z,1.42
2022-09-12T15:08:00.384Z,2.83
2022-09-12T15:10:32.356Z,2.20
2022-09-12T15:13:19.376Z,1.63
2022-09-12T15:15:50.378Z,1.67
2022-09-12T15:18:20.276Z,4.30
2022-09-12T15:20:51.700Z,1.58
2022-09-12T15:23:35.008Z,3.53
2022-09-12T15:26:05.558Z,1.60
2022-09-12T15:28:34.896Z,2.40
2022-09-12T15:31:08.256Z,1.88
2022-09-12T15:33:36.842Z,1.50
2022-09-12T15:36:12.852Z,1.40
2022-09-12T15:38:43.032Z,4.88
2022-09-12T15:41:17.324Z,1.88
2022-09-12T15:48:00.632Z,1.88
2022-09-12T15:50:29.805Z,3.80
2022-09-12T15:52:58.479Z,2.67
2022-09-12T15:55:32.124Z,5.88
2022-09-12T15:58:04.979Z,1.60
2022-09-12T16:00:35.717Z,2.83
2022-09-12T16:03:04.864Z,1.50
2022-09-12T16:05:34.368Z,2.35
2022-09-12T16:08:03.373Z,1.67
2022-09-12T16:10:33.760Z,1.50
2022-09-12T16:13:04.364Z,3.33
2022-09-12T16:15:33.214Z,3.88
2022-09-12T16:18:01.700Z,4.95
2022-09-12T16:20:30.282Z,3.67
2022-09-12T16:22:59.012Z,1.70
2022-09-12T16:25:27.588Z,2.35
2022-09-12T16:27:57.447Z,1.70
2022-09-12T16:30:26.063Z,2.25
2022-09-12T16:32:54.515Z,2.42
2022-09-12T16:35:23.004Z,1.85
2022-09-12T16:37:51.789Z,2.55
2022-09-12T16:40:20.722Z,1.40
2022-09-12T16:42:49.286Z,1.38
2022-09-12T16:45:19.235Z,2.08
2022-09-12T16:47:49.048Z,1.73
2022-09-12T16:50:17.631Z,1.50
2022-09-12T16:52:46.077Z,3.35
2022-09-12T16:55:14.537Z,3.83
2022-09-12T16:57:43.057Z,2.22
2022-09-12T17:00:12.609Z,2.88
2022-09-12T17:02:42.568Z,3.17
2022-09-12T17:05:11.146Z,5.25
2022-09-12T17:07:39.584Z,2.53
2022-09-12T17:10:08.587Z,2.30
2022-09-12T17:12:37.065Z,4.40
2022-09-12T17:15:06.403Z,2.38
2022-09-12T17:17:34.908Z,2.42
2022-09-12T17:20:05.252Z,2.40
2022-09-12T17:22:34.814Z,2.78
2022-09-12T17:25:03.458Z,3.33
2022-09-12T17:27:32.068Z,2.97
2022-09-12T17:30:00.526Z,5.18
2022-09-12T17:32:29.009Z,2.80
2022-09-12T17:34:57.915Z,3.92
2022-09-12T17:37:28.059Z,4.70
2022-09-12T17:39:57.804Z,3.67
2022-09-12T17:42:26.373Z,2.83
2022-09-12T17:44:55.657Z,3.10
2022-09-12T17:47:24.141Z,5.38
2022-09-12T17:49:54.683Z,2.72
2022-09-12T17:52:31.522Z,2.80
2022-09-12T17:55:00.026Z,4.55
2022-09-12T17:57:28.496Z,5.40
2022-09-12T17:59:56.973Z,4.07
2022-09-12T18:02:24.512Z,5.45
2022-09-12T18:04:53.081Z,3.65
2022-09-12T18:07:22.280Z,4.13
2022-09-12T18:09:54.056Z,3.47
2022-09-12T18:12:22.577Z,5.88
2022-09-12T18:14:51.050Z,6.80
2022-09-12T18:17:19.683Z,3.58
2022-09-12T18:19:52.942Z,4.75
2022-09-12T18:22:22.062Z,3.90
2022-09-12T18:24:52.017Z,5.15
2022-09-12T18:27:20.487Z,4.20
2022-09-12T18:29:59.082Z,8.50
2022-09-12T18:32:37.489Z,5.15
2022-09-12T18:35:06.924Z,6.25
2022-09-12T18:37:35.522Z,5.07
2022-09-12T18:40:07.085Z,5.85
2022-09-12T18:42:35.795Z,4.20
2022-09-12T18:45:04.269Z,6.77
2022-09-12T18:47:32.707Z,4.38
2022-09-12T18:50:01.337Z,4.72
2022-09-12T18:52:30.098Z,4.45
2022-09-12T18:54:58.583Z,4.33
2022-09-12T18:57:30.543Z,4.23
2022-09-12T19:00:00.122Z,4.40
2022-09-12T19:02:29.258Z,5.00
2022-09-12T19:04:58.172Z,5.93
2022-09-12T19:07:26.949Z,4.30
2022-09-12T19:09:55.673Z,5.10
2022-09-12T19:12:24.473Z,5.60
2022-09-12T19:14:54.589Z,7.45
2022-09-12T19:17:23.277Z,7.20
2022-09-12T19:19:51.985Z,7.17
2022-09-12T19:22:20.510Z,5.73
2022-09-12T19:24:49.334Z,5.93
2022-09-12T19:27:18.007Z,5.77
2022-09-12T19:29:46.667Z,7.13
2022-09-12T19:32:16.622Z,6.40
2022-09-12T19:34:45.345Z,9.23
2022-09-12T19:37:14.051Z,8.40
2022-09-12T19:39:45.320Z,12.70
2022-09-12T19:42:14.013Z,8.20
2022-09-12T19:44:42.766Z,8.53
2022-09-12T19:47:11.606Z,8.10
2022-09-12T19:49:41.421Z,8.40
2022-09-12T19:52:11.866Z,8.07
2022-09-12T19:54:43.400Z,9.30
2022-09-12T19:57:13.140Z,9.23
2022-09-12T19:59:42.787Z,9.23
2022-09-12T20:02:11.558Z,8.67
2022-09-12T20:04:42.137Z,8.97
2022-09-12T20:07:10.866Z,11.37
2022-09-12T20:09:39.639Z,9.47
2022-09-12T20:12:08.256Z,10.23
2022-09-12T20:14:36.823Z,22.40
2022-09-12T20:17:05.603Z,42.70
2022-09-12T20:19:34.474Z,24.07
2022-09-12T20:22:05.022Z,25.67
2022-09-12T20:24:33.995Z,23.13
2022-09-12T20:27:02.595Z,21.63
2022-09-12T20:29:31.458Z,23.13
2022-09-12T20:32:00.019Z,20.57
2022-09-12T20:34:29.084Z,23.30
2022-09-12T20:36:57.795Z,18.73
2022-09-12T20:39:29.276Z,16.80
2022-09-12T20:41:58.013Z,18.23
2022-09-12T20:44:26.506Z,18.00
2022-09-12T20:46:55.300Z,22.80
2022-09-12T20:49:24.379Z,18.50
2022-09-12T20:51:52.921Z,20.37
2022-09-12T20:54:21.537Z,16.80
2022-09-12T20:56:51.767Z,15.77
2022-09-12T20:59:21.823Z,11.37
2022-09-12T21:01:50.678Z,12.07
2022-09-12T21:04:19.886Z,14.60
2022-09-12T21:06:48.636Z,15.57
2022-09-12T21:09:17.359Z,9.20
2022-09-12T21:11:46.086Z,9.97
2022-09-12T21:14:16.322Z,9.70
2022-09-12T21:16:45.001Z,10.33
2022-09-12T21:19:13.604Z,14.50
2022-09-12T21:21:42.227Z,11.10
2022-09-12T21:24:15.225Z,11.03
2022-09-12T21:26:43.965Z,12.67
2022-09-12T21:29:12.732Z,17.67
2022-09-12T21:31:44.552Z,18.30
2022-09-12T21:34:13.262Z,21.33
2022-09-12T21:36:41.970Z,27.57
2022-09-12T21:39:10.815Z,13.43
2022-09-12T21:41:39.494Z,12.53
2022-09-12T21:44:08.744Z,12.77
2022-09-12T21:46:37.679Z,12.20
2022-09-12T21:49:07.837Z,14.97
2022-09-12T21:51:36.552Z,19.10
2022-09-12T21:54:05.548Z,15.50
2022-09-12T21:56:34.301Z,17.63
2022-09-12T21:59:03.226Z,16.17
2022-09-12T22:01:31.744Z,18.67
2022-09-12T22:04:00.235Z,21.20
2022-09-12T22:06:30.114Z,18.93
2022-09-12T22:08:58.669Z,16.47
2022-09-12T22:11:27.140Z,15.43
2022-09-12T22:13:55.696Z,12.53
2022-09-12T22:16:24.301Z,16.03
2022-09-12T22:18:53.744Z,15.93
2022-09-12T22:21:24.326Z,15.37
2022-09-12T22:24:11.888Z,14.23
2022-09-12T22:26:46.110Z,15.80
2022-09-12T22:29:14.803Z,15.77
2022-09-12T22:31:43.317Z,18.40
2022-09-12T22:34:11.896Z,15.13
2022-09-12T22:36:40.985Z,16.07
2022-09-12T22:39:11.132Z,16.93
2022-09-12T22:41:39.627Z,18.83
2022-09-12T22:44:08.138Z,16.37
2022-09-12T22:46:36.636Z,18.67
2022-09-12T22:49:05.755Z,14.47
2022-09-12T22:51:34.874Z,17.97
2022-09-12T22:54:03.571Z,19.27
2022-09-12T22:56:33.985Z,22.80
2022-09-12T22:59:02.504Z,21.30
2022-09-12T23:01:31.801Z,21.53
2022-09-12T23:04:00.401Z,18.50
2022-09-12T23:06:29.229Z,22.47
2022-09-12T23:08:57.721Z,17.73
2022-09-12T23:11:26.861Z,17.90
2022-09-12T23:13:56.712Z,17.30
2022-09-12T23:16:28.343Z,17.13
2022-09-12T23:18:57.019Z,17.83
2022-09-12T23:21:25.454Z,15.80
2022-09-12T23:23:54.006Z,17.37
2022-09-12T23:26:24.485Z,15.83
2022-09-12T23:28:54.650Z,16.83
2022-09-12T23:31:26.025Z,19.23
2022-09-12T23:33:54.659Z,18.70
2022-09-12T23:36:23.653Z,18.10
2022-09-12T23:38:52.393Z,21.43
2022-09-12T23:41:22.113Z,19.20
2022-09-12T23:43:50.702Z,17.50
2022-09-12T23:46:20.203Z,18.97
2022-09-12T23:48:50.428Z,20.37
2022-09-12T23:51:19.093Z,141.77
2022-09-12T23:53:47.534Z,264.93
2022-09-12T23:56:16.040Z,288.47
2022-09-12T23:58:44.489Z,195.97
